sensor_id;sensor_type;location;lat;lon;timestamp;P1;durP1;ratioP1;P2;durP2;ratioP2
30068;SDS011;16894;49.456;10.644;2022-08-03T00:01:23;25.53;;;22.20;;
30068;SDS011;16894;49.456;10.644;2022-08-03T00:03:49;21.97;;;20.27;;
30068;SDS011;16894;49.456;10.644;2022-08-03T00:06:15;23.07;;;21.27;;
30068;SDS011;16894;49.456;10.644;2022-08-03T00:08:40;22.17;;;20.67;;
30068;SDS011;16894;49.456;10.644;2022-08-03T00:11:06;21.57;;;20.00;;
30068;SDS011;16894;49.456;10.644;2022-08-03T00:13:32;20.93;;;19.53;;
30068;SDS011;16894;49.456;10.644;2022-08-03T00:15:58;22.98;;;20.77;;
30068;SDS011;16894;49.456;10.644;2022-08-03T00:18:23;22.67;;;21.07;;
30068;SDS011;16894;49.456;10.644;2022-08-03T00:20:49;21.63;;;20.13;;
30068;SDS011;16894;49.456;10.644;2022-08-03T00:23:15;20.37;;;18.87;;
30068;SDS011;16894;49.456;10.644;2022-08-03T00:25:41;22.20;;;20.67;;
30068;SDS011;16894;49.456;10.644;2022-08-03T00:28:06;20.40;;;18.80;;
30068;SDS011;16894;49.456;10.644;2022-08-03T00:30:32;19.63;;;18.13;;
30068;SDS011;16894;49.456;10.644;2022-08-03T00:32:59;20.60;;;18.63;;
30068;SDS011;16894;49.456;10.644;2022-08-03T00:37:51;22.50;;;20.35;;
30068;SDS011;16894;49.456;10.644;2022-08-03T00:40:17;21.37;;;19.70;;
30068;SDS011;16894;49.456;10.644;2022-08-03T00:42:50;18.83;;;17.52;;
30068;SDS011;16894;49.456;10.644;2022-08-03T00:45:27;18.73;;;17.42;;
30068;SDS011;16894;49.456;10.644;2022-08-03T00:47:57;20.05;;;18.60;;
30068;SDS011;16894;49.456;10.644;2022-08-03T00:50:23;17.27;;;15.70;;
30068;SDS011;16894;49.456;10.644;2022-08-03T00:52:52;17.80;;;16.60;;
30068;SDS011;16894;49.456;10.644;2022-08-03T00:55:19;17.38;;;16.17;;
30068;SDS011;16894;49.456;10.644;2022-08-03T00:57:46;19.23;;;17.67;;
30068;SDS011;16894;49.456;10.644;2022-08-03T01:00:13;21.05;;;17.10;;
30068;SDS011;16894;49.456;10.644;2022-08-03T01:02:40;17.35;;;15.95;;
30068;SDS011;16894;49.456;10.644;2022-08-03T01:05:07;17.13;;;15.82;;
30068;SDS011;16894;49.456;10.644;2022-08-03T01:13:02;16.77;;;15.40;;
30068;SDS011;16894;49.456;10.644;2022-08-03T01:18:17;12.90;;;12.00;;
30068;SDS011;16894;49.456;10.644;2022-08-03T01:20:47;10.40;;;9.45;;
30068;SDS011;16894;49.456;10.644;2022-08-03T01:23:21;9.88;;;8.98;;
30068;SDS011;16894;49.456;10.644;2022-08-03T01:26:05;10.02;;;9.13;;
30068;SDS011;16894;49.456;10.644;2022-08-03T01:31:38;10.90;;;9.20;;
30068;SDS011;16894;49.456;10.644;2022-08-03T01:34:25;9.23;;;8.32;;
30068;SDS011;16894;49.456;10.644;2022-08-03T01:36:55;8.50;;;7.80;;
30068;SDS011;16894;49.456;10.644;2022-08-03T01:39:23;9.02;;;7.20;;
30068;SDS011;16894;49.456;10.644;2022-08-03T01:41:52;8.45;;;7.65;;
30068;SDS011;16894;49.456;10.644;2022-08-03T01:44:23;9.27;;;7.40;;
30068;SDS011;16894;49.456;10.644;2022-08-03T01:46:50;6.60;;;5.93;;
30068;SDS011;16894;49.456;10.644;2022-08-03T01:49:18;8.18;;;7.13;;
30068;SDS011;16894;49.456;10.644;2022-08-03T01:51:44;6.50;;;5.90;;
30068;SDS011;16894;49.456;10.644;2022-08-03T01:54:13;7.30;;;6.65;;
30068;SDS011;16894;49.456;10.644;2022-08-03T01:56:40;6.43;;;5.82;;
30068;SDS011;16894;49.456;10.644;2022-08-03T01:59:07;9.52;;;6.43;;
30068;SDS011;16894;49.456;10.644;2022-08-03T02:01:36;7.68;;;6.82;;
30068;SDS011;16894;49.456;10.644;2022-08-03T02:04:02;9.15;;;6.43;;
30068;SDS011;16894;49.456;10.644;2022-08-03T02:06:31;7.93;;;6.88;;
30068;SDS011;16894;49.456;10.644;2022-08-03T02:08:58;8.77;;;5.82;;
30068;SDS011;16894;49.456;10.644;2022-08-03T02:11:24;8.13;;;6.50;;
30068;SDS011;16894;49.456;10.644;2022-08-03T02:13:51;8.75;;;6.60;;
30068;SDS011;16894;49.456;10.644;2022-08-03T02:16:18;7.15;;;6.43;;
30068;SDS011;16894;49.456;10.644;2022-08-03T02:18:48;6.38;;;5.80;;
30068;SDS011;16894;49.456;10.644;2022-08-03T02:21:15;6.88;;;6.07;;
30068;SDS011;16894;49.456;10.644;2022-08-03T02:26:08;7.28;;;6.13;;
30068;SDS011;16894;49.456;10.644;2022-08-03T02:28:39;10.30;;;7.05;;
30068;SDS011;16894;49.456;10.644;2022-08-03T02:31:10;9.95;;;6.72;;
30068;SDS011;16894;49.456;10.644;2022-08-03T02:33:43;8.00;;;6.30;;
30068;SDS011;16894;49.456;10.644;2022-08-03T02:36:19;10.20;;;5.93;;
30068;SDS011;16894;49.456;10.644;2022-08-03T02:38:52;7.68;;;6.00;;
30068;SDS011;16894;49.456;10.644;2022-08-03T02:41:22;7.55;;;6.50;;
30068;SDS011;16894;49.456;10.644;2022-08-03T02:43:52;7.55;;;6.70;;
30068;SDS011;16894;49.456;10.644;2022-08-03T02:46:20;7.57;;;6.82;;
30068;SDS011;16894;49.456;10.644;2022-08-03T02:48:54;6.55;;;5.95;;
30068;SDS011;16894;49.456;10.644;2022-08-03T02:51:21;10.50;;;6.57;;
30068;SDS011;16894;49.456;10.644;2022-08-03T02:53:47;7.57;;;6.78;;
30068;SDS011;16894;49.456;10.644;2022-08-03T02:56:14;7.72;;;6.80;;
30068;SDS011;16894;49.456;10.644;2022-08-03T02:58:42;9.10;;;6.50;;
30068;SDS011;16894;49.456;10.644;2022-08-03T03:01:09;9.85;;;6.20;;
30068;SDS011;16894;49.456;10.644;2022-08-03T03:03:36;7.35;;;6.63;;
30068;SDS011;16894;49.456;10.644;2022-08-03T03:06:04;7.40;;;6.40;;
30068;SDS011;16894;49.456;10.644;2022-08-03T03:08:31;10.65;;;7.45;;
30068;SDS011;16894;49.456;10.644;2022-08-03T03:10:58;7.65;;;6.95;;
30068;SDS011;16894;49.456;10.644;2022-08-03T03:13:26;12.38;;;6.70;;
30068;SDS011;16894;49.456;10.644;2022-08-03T03:15:53;8.07;;;7.28;;
30068;SDS011;16894;49.456;10.644;2022-08-03T03:18:22;6.88;;;6.18;;
30068;SDS011;16894;49.456;10.644;2022-08-03T03:20:50;12.27;;;7.10;;
30068;SDS011;16894;49.456;10.644;2022-08-03T03:23:17;17.30;;;6.65;;
30068;SDS011;16894;49.456;10.644;2022-08-03T03:25:45;11.13;;;7.32;;
30068;SDS011;16894;49.456;10.644;2022-08-03T03:28:11;7.28;;;6.57;;
30068;SDS011;16894;49.456;10.644;2022-08-03T03:30:37;9.45;;;7.60;;
30068;SDS011;16894;49.456;10.644;2022-08-03T03:33:02;8.43;;;7.60;;
30068;SDS011;16894;49.456;10.644;2022-08-03T03:35:29;7.90;;;7.10;;
30068;SDS011;16894;49.456;10.644;2022-08-03T03:37:55;9.13;;;8.23;;
30068;SDS011;16894;49.456;10.644;2022-08-03T03:40:21;11.25;;;10.10;;
30068;SDS011;16894;49.456;10.644;2022-08-03T03:42:47;11.10;;;9.70;;
30068;SDS011;16894;49.456;10.644;2022-08-03T03:45:13;10.70;;;9.35;;
30068;SDS011;16894;49.456;10.644;2022-08-03T03:47:39;10.02;;;8.95;;
30068;SDS011;16894;49.456;10.644;2022-08-03T03:50:05;10.60;;;9.60;;
30068;SDS011;16894;49.456;10.644;2022-08-03T03:52:31;10.02;;;9.02;;
30068;SDS011;16894;49.456;10.644;2022-08-03T03:54:57;10.43;;;9.52;;
30068;SDS011;16894;49.456;10.644;2022-08-03T03:57:23;16.23;;;10.32;;
30068;SDS011;16894;49.456;10.644;2022-08-03T03:59:50;11.18;;;9.40;;
30068;SDS011;16894;49.456;10.644;2022-08-03T04:02:15;10.13;;;9.23;;
30068;SDS011;16894;49.456;10.644;2022-08-03T04:04:41;12.02;;;9.38;;
30068;SDS011;16894;49.456;10.644;2022-08-03T04:07:26;11.18;;;10.07;;
30068;SDS011;16894;49.456;10.644;2022-08-03T04:10:17;11.32;;;10.23;;
30068;SDS011;16894;49.456;10.644;2022-08-03T04:13:06;11.30;;;10.20;;
30068;SDS011;16894;49.456;10.644;2022-08-03T04:15:37;11.95;;;10.75;;
30068;SDS011;16894;49.456;10.644;2022-08-03T04:18:04;12.35;;;11.02;;
30068;SDS011;16894;49.456;10.644;2022-08-03T04:20:33;13.38;;;12.15;;
30068;SDS011;16894;49.456;10.644;2022-08-03T04:23:01;11.95;;;10.95;;
30068;SDS011;16894;49.456;10.644;2022-08-03T04:27:55;11.68;;;10.25;;
30068;SDS011;16894;49.456;10.644;2022-08-03T04:30:23;15.45;;;11.18;;
30068;SDS011;16894;49.456;10.644;2022-08-03T04:32:51;12.65;;;11.07;;
30068;SDS011;16894;49.456;10.644;2022-08-03T04:35:19;12.02;;;10.93;;
30068;SDS011;16894;49.456;10.644;2022-08-03T04:37:45;20.40;;;11.20;;
30068;SDS011;16894;49.456;10.644;2022-08-03T04:40:14;13.48;;;10.55;;
30068;SDS011;16894;49.456;10.644;2022-08-03T04:42:49;13.25;;;11.90;;
30068;SDS011;16894;49.456;10.644;2022-08-03T04:45:17;11.68;;;10.48;;
30068;SDS011;16894;49.456;10.644;2022-08-03T04:47:44;11.82;;;10.55;;
30068;SDS011;16894;49.456;10.644;2022-08-03T04:50:11;10.95;;;9.88;;
30068;SDS011;16894;49.456;10.644;2022-08-03T04:52:37;11.23;;;10.13;;
30068;SDS011;16894;49.456;10.644;2022-08-03T04:55:03;17.13;;;8.68;;
30068;SDS011;16894;49.456;10.644;2022-08-03T04:59:55;17.52;;;8.90;;
30068;SDS011;16894;49.456;10.644;2022-08-03T05:02:21;9.90;;;9.00;;
30068;SDS011;16894;49.456;10.644;2022-08-03T05:04:47;13.00;;;9.48;;
30068;SDS011;16894;49.456;10.644;2022-08-03T05:07:14;11.32;;;9.07;;
30068;SDS011;16894;49.456;10.644;2022-08-03T05:09:41;12.70;;;8.90;;
30068;SDS011;16894;49.456;10.644;2022-08-03T05:12:07;12.00;;;9.48;;
30068;SDS011;16894;49.456;10.644;2022-08-03T05:14:33;15.63;;;10.63;;
30068;SDS011;16894;49.456;10.644;2022-08-03T05:17:01;11.52;;;10.43;;
30068;SDS011;16894;49.456;10.644;2022-08-03T05:19:26;11.50;;;9.83;;
30068;SDS011;16894;49.456;10.644;2022-08-03T05:21:52;13.48;;;12.05;;
30068;SDS011;16894;49.456;10.644;2022-08-03T05:24:18;21.70;;;10.63;;
30068;SDS011;16894;49.456;10.644;2022-08-03T05:26:43;15.37;;;11.37;;
30068;SDS011;16894;49.456;10.644;2022-08-03T05:29:09;12.33;;;10.17;;
30068;SDS011;16894;49.456;10.644;2022-08-03T05:31:35;16.60;;;9.83;;
30068;SDS011;16894;49.456;10.644;2022-08-03T05:34:00;11.23;;;9.37;;
30068;SDS011;16894;49.456;10.644;2022-08-03T05:36:26;13.00;;;8.60;;
30068;SDS011;16894;49.456;10.644;2022-08-03T05:38:52;12.20;;;8.63;;
30068;SDS011;16894;49.456;10.644;2022-08-03T05:41:17;11.23;;;10.02;;
30068;SDS011;16894;49.456;10.644;2022-08-03T05:43:43;9.80;;;8.77;;
30068;SDS011;16894;49.456;10.644;2022-08-03T05:46:10;11.20;;;8.55;;
30068;SDS011;16894;49.456;10.644;2022-08-03T05:48:35;12.73;;;8.55;;
30068;SDS011;16894;49.456;10.644;2022-08-03T05:51:01;17.20;;;11.60;;
30068;SDS011;16894;49.456;10.644;2022-08-03T05:53:31;26.13;;;13.27;;
30068;SDS011;16894;49.456;10.644;2022-08-03T05:55:58;12.60;;;9.13;;
30068;SDS011;16894;49.456;10.644;2022-08-03T05:58:23;9.77;;;7.78;;
30068;SDS011;16894;49.456;10.644;2022-08-03T06:00:49;8.90;;;7.50;;
30068;SDS011;16894;49.456;10.644;2022-08-03T06:03:15;18.47;;;10.20;;
30068;SDS011;16894;49.456;10.644;2022-08-03T06:05:40;14.87;;;10.33;;
30068;SDS011;16894;49.456;10.644;2022-08-03T06:08:06;16.53;;;10.10;;
30068;SDS011;16894;49.456;10.644;2022-08-03T06:10:32;18.73;;;10.10;;
30068;SDS011;16894;49.456;10.644;2022-08-03T06:12:57;36.90;;;16.87;;
30068;SDS011;16894;49.456;10.644;2022-08-03T06:15:23;16.23;;;11.33;;
30068;SDS011;16894;49.456;10.644;2022-08-03T06:17:49;13.20;;;8.77;;
30068;SDS011;16894;49.456;10.644;2022-08-03T06:20:19;12.82;;;7.97;;
30068;SDS011;16894;49.456;10.644;2022-08-03T06:22:45;10.65;;;9.27;;
30068;SDS011;16894;49.456;10.644;2022-08-03T06:25:12;16.13;;;7.53;;
30068;SDS011;16894;49.456;10.644;2022-08-03T06:27:37;9.87;;;7.23;;
30068;SDS011;16894;49.456;10.644;2022-08-03T06:30:06;11.88;;;7.90;;
30068;SDS011;16894;49.456;10.644;2022-08-03T06:32:34;9.73;;;7.63;;
30068;SDS011;16894;49.456;10.644;2022-08-03T06:35:06;8.10;;;7.30;;
30068;SDS011;16894;49.456;10.644;2022-08-03T06:40:10;11.63;;;7.85;;
30068;SDS011;16894;49.456;10.644;2022-08-03T06:42:40;17.85;;;7.20;;
30068;SDS011;16894;49.456;10.644;2022-08-03T06:45:06;13.80;;;8.07;;
30068;SDS011;16894;49.456;10.644;2022-08-03T06:47:34;16.42;;;8.32;;
30068;SDS011;16894;49.456;10.644;2022-08-03T06:50:01;10.05;;;8.05;;
30068;SDS011;16894;49.456;10.644;2022-08-03T06:52:27;10.38;;;7.93;;
30068;SDS011;16894;49.456;10.644;2022-08-03T06:54:53;8.65;;;7.68;;
30068;SDS011;16894;49.456;10.644;2022-08-03T06:57:18;12.73;;;7.13;;
30068;SDS011;16894;49.456;10.644;2022-08-03T06:59:44;11.90;;;7.40;;
30068;SDS011;16894;49.456;10.644;2022-08-03T07:02:09;9.63;;;7.03;;
30068;SDS011;16894;49.456;10.644;2022-08-03T07:04:35;7.35;;;6.35;;
30068;SDS011;16894;49.456;10.644;2022-08-03T07:07:01;14.80;;;5.95;;
30068;SDS011;16894;49.456;10.644;2022-08-03T07:09:27;6.47;;;5.75;;
30068;SDS011;16894;49.456;10.644;2022-08-03T07:11:53;6.72;;;6.13;;
30068;SDS011;16894;49.456;10.644;2022-08-03T07:14:19;15.25;;;6.95;;
30068;SDS011;16894;49.456;10.644;2022-08-03T07:16:45;9.95;;;6.40;;
30068;SDS011;16894;49.456;10.644;2022-08-03T07:19:11;8.00;;;6.22;;
30068;SDS011;16894;49.456;10.644;2022-08-03T07:21:36;10.85;;;6.40;;
30068;SDS011;16894;49.456;10.644;2022-08-03T07:24:02;6.80;;;6.20;;
30068;SDS011;16894;49.456;10.644;2022-08-03T07:26:28;7.18;;;6.22;;
30068;SDS011;16894;49.456;10.644;2022-08-03T07:28:54;18.30;;;6.75;;
30068;SDS011;16894;49.456;10.644;2022-08-03T07:31:19;13.10;;;6.68;;
30068;SDS011;16894;49.456;10.644;2022-08-03T07:33:45;7.70;;;6.93;;
30068;SDS011;16894;49.456;10.644;2022-08-03T07:36:10;8.85;;;7.10;;
30068;SDS011;16894;49.456;10.644;2022-08-03T07:38:36;9.98;;;7.03;;
30068;SDS011;16894;49.456;10.644;2022-08-03T07:41:02;8.38;;;7.63;;
30068;SDS011;16894;49.456;10.644;2022-08-03T07:43:28;19.13;;;7.72;;
30068;SDS011;16894;49.456;10.644;2022-08-03T07:45:54;7.32;;;6.57;;
30068;SDS011;16894;49.456;10.644;2022-08-03T07:48:19;7.43;;;6.72;;
30068;SDS011;16894;49.456;10.644;2022-08-03T07:50:45;9.20;;;5.20;;
30068;SDS011;16894;49.456;10.644;2022-08-03T07:53:11;5.38;;;4.43;;
30068;SDS011;16894;49.456;10.644;2022-08-03T07:55:37;10.35;;;6.30;;
30068;SDS011;16894;49.456;10.644;2022-08-03T07:58:03;11.43;;;6.22;;
30068;SDS011;16894;49.456;10.644;2022-08-03T08:00:36;10.43;;;4.63;;
30068;SDS011;16894;49.456;10.644;2022-08-03T08:03:02;5.75;;;4.18;;
30068;SDS011;16894;49.456;10.644;2022-08-03T08:05:29;5.78;;;5.07;;
30068;SDS011;16894;49.456;10.644;2022-08-03T08:07:54;9.73;;;5.57;;
30068;SDS011;16894;49.456;10.644;2022-08-03T08:10:20;5.53;;;4.95;;
30068;SDS011;16894;49.456;10.644;2022-08-03T08:12:46;6.03;;;5.30;;
30068;SDS011;16894;49.456;10.644;2022-08-03T08:17:45;7.32;;;4.82;;
30068;SDS011;16894;49.456;10.644;2022-08-03T08:22:42;8.88;;;5.00;;
30068;SDS011;16894;49.456;10.644;2022-08-03T08:25:08;7.60;;;5.25;;
30068;SDS011;16894;49.456;10.644;2022-08-03T08:27:39;11.63;;;8.13;;
30068;SDS011;16894;49.456;10.644;2022-08-03T08:30:12;10.55;;;9.60;;
30068;SDS011;16894;49.456;10.644;2022-08-03T08:32:40;13.35;;;7.95;;
30068;SDS011;16894;49.456;10.644;2022-08-03T08:35:06;7.95;;;6.30;;
30068;SDS011;16894;49.456;10.644;2022-08-03T08:37:33;7.13;;;6.43;;
30068;SDS011;16894;49.456;10.644;2022-08-03T08:39:59;6.68;;;5.97;;
30068;SDS011;16894;49.456;10.644;2022-08-03T08:42:25;9.55;;;5.63;;
30068;SDS011;16894;49.456;10.644;2022-08-03T08:44:51;6.38;;;5.47;;
30068;SDS011;16894;49.456;10.644;2022-08-03T08:47:17;9.27;;;4.93;;
30068;SDS011;16894;49.456;10.644;2022-08-03T08:49:48;4.88;;;4.47;;
30068;SDS011;16894;49.456;10.644;2022-08-03T08:52:18;6.45;;;4.97;;
30068;SDS011;16894;49.456;10.644;2022-08-03T08:54:48;11.15;;;5.32;;
30068;SDS011;16894;49.456;10.644;2022-08-03T08:57:14;6.55;;;5.85;;
30068;SDS011;16894;49.456;10.644;2022-08-03T08:59:40;7.18;;;6.57;;
30068;SDS011;16894;49.456;10.644;2022-08-03T09:02:07;9.55;;;7.40;;
30068;SDS011;16894;49.456;10.644;2022-08-03T09:04:33;9.50;;;8.75;;
30068;SDS011;16894;49.456;10.644;2022-08-03T09:07:00;18.80;;;17.08;;
30068;SDS011;16894;49.456;10.644;2022-08-03T09:09:26;16.38;;;14.90;;
30068;SDS011;16894;49.456;10.644;2022-08-03T09:11:52;15.60;;;14.60;;
30068;SDS011;16894;49.456;10.644;2022-08-03T09:14:18;18.60;;;17.30;;
30068;SDS011;16894;49.456;10.644;2022-08-03T09:16:57;20.23;;;18.60;;
30068;SDS011;16894;49.456;10.644;2022-08-03T09:19:26;18.73;;;17.10;;
30068;SDS011;16894;49.456;10.644;2022-08-03T09:22:15;17.55;;;16.33;;
30068;SDS011;16894;49.456;10.644;2022-08-03T09:24:56;18.67;;;17.52;;
30068;SDS011;16894;49.456;10.644;2022-08-03T09:27:24;22.00;;;20.70;;
30068;SDS011;16894;49.456;10.644;2022-08-03T09:29:50;24.50;;;22.95;;
30068;SDS011;16894;49.456;10.644;2022-08-03T09:32:21;25.83;;;23.73;;
30068;SDS011;16894;49.456;10.644;2022-08-03T09:34:49;26.25;;;24.35;;
30068;SDS011;16894;49.456;10.644;2022-08-03T09:37:17;26.90;;;24.80;;
30068;SDS011;16894;49.456;10.644;2022-08-03T09:39:44;31.42;;;29.10;;
30068;SDS011;16894;49.456;10.644;2022-08-03T09:44:45;31.00;;;29.05;;
30068;SDS011;16894;49.456;10.644;2022-08-03T09:47:13;31.70;;;29.60;;
30068;SDS011;16894;49.456;10.644;2022-08-03T09:49:41;30.65;;;28.58;;
30068;SDS011;16894;49.456;10.644;2022-08-03T09:52:20;24.48;;;22.92;;
30068;SDS011;16894;49.456;10.644;2022-08-03T09:54:53;30.38;;;28.20;;
30068;SDS011;16894;49.456;10.644;2022-08-03T09:57:19;26.65;;;25.05;;
30068;SDS011;16894;49.456;10.644;2022-08-03T09:59:46;24.67;;;23.00;;
30068;SDS011;16894;49.456;10.644;2022-08-03T10:02:23;27.77;;;25.38;;
30068;SDS011;16894;49.456;10.644;2022-08-03T10:04:51;23.25;;;21.45;;
30068;SDS011;16894;49.456;10.644;2022-08-03T10:07:19;26.70;;;24.30;;
30068;SDS011;16894;49.456;10.644;2022-08-03T10:09:58;30.02;;;27.73;;
30068;SDS011;16894;49.456;10.644;2022-08-03T10:12:25;26.05;;;24.23;;
30068;SDS011;16894;49.456;10.644;2022-08-03T10:14:51;29.88;;;27.85;;
30068;SDS011;16894;49.456;10.644;2022-08-03T10:17:19;28.00;;;26.17;;
30068;SDS011;16894;49.456;10.644;2022-08-03T10:19:45;30.13;;;28.25;;
30068;SDS011;16894;49.456;10.644;2022-08-03T10:22:13;30.85;;;28.77;;
30068;SDS011;16894;49.456;10.644;2022-08-03T10:25:03;28.98;;;27.08;;
30068;SDS011;16894;49.456;10.644;2022-08-03T10:27:53;29.30;;;27.42;;
30068;SDS011;16894;49.456;10.644;2022-08-03T10:30:21;30.23;;;27.85;;
30068;SDS011;16894;49.456;10.644;2022-08-03T10:32:52;29.70;;;27.80;;
30068;SDS011;16894;49.456;10.644;2022-08-03T10:35:23;27.40;;;25.73;;
30068;SDS011;16894;49.456;10.644;2022-08-03T10:40:27;30.85;;;28.35;;
30068;SDS011;16894;49.456;10.644;2022-08-03T10:42:55;29.95;;;27.45;;
30068;SDS011;16894;49.456;10.644;2022-08-03T10:45:27;31.55;;;28.65;;
30068;SDS011;16894;49.456;10.644;2022-08-03T10:47:55;27.95;;;26.02;;
30068;SDS011;16894;49.456;10.644;2022-08-03T10:50:22;26.63;;;24.30;;
30068;SDS011;16894;49.456;10.644;2022-08-03T10:53:07;25.58;;;23.70;;
30068;SDS011;16894;49.456;10.644;2022-08-03T10:55:40;24.00;;;22.30;;
30068;SDS011;16894;49.456;10.644;2022-08-03T11:01:03;25.40;;;22.95;;
30068;SDS011;16894;49.456;10.644;2022-08-03T11:03:30;26.40;;;24.70;;
30068;SDS011;16894;49.456;10.644;2022-08-03T11:06:15;24.98;;;23.35;;
30068;SDS011;16894;49.456;10.644;2022-08-03T11:08:43;25.10;;;22.38;;
30068;SDS011;16894;49.456;10.644;2022-08-03T11:16:27;19.48;;;17.70;;
30068;SDS011;16894;49.456;10.644;2022-08-03T11:18:57;19.65;;;18.05;;
30068;SDS011;16894;49.456;10.644;2022-08-03T11:35:16;14.40;;;13.50;;
30068;SDS011;16894;49.456;10.644;2022-08-03T11:40:42;15.35;;;14.30;;
30068;SDS011;16894;49.456;10.644;2022-08-03T11:45:59;14.80;;;13.80;;
30068;SDS011;16894;49.456;10.644;2022-08-03T11:48:33;28.35;;;25.60;;
30068;SDS011;16894;49.456;10.644;2022-08-03T11:51:04;11.77;;;10.68;;
30068;SDS011;16894;49.456;10.644;2022-08-03T11:53:31;11.23;;;10.43;;
30068;SDS011;16894;49.456;10.644;2022-08-03T11:55:57;7.05;;;6.57;;
30068;SDS011;16894;49.456;10.644;2022-08-03T11:58:24;8.60;;;7.90;;
30068;SDS011;16894;49.456;10.644;2022-08-03T12:00:50;9.73;;;9.13;;
30068;SDS011;16894;49.456;10.644;2022-08-03T12:03:19;9.20;;;8.60;;
30068;SDS011;16894;49.456;10.644;2022-08-03T12:05:49;8.07;;;7.35;;
30068;SDS011;16894;49.456;10.644;2022-08-03T12:08:17;7.90;;;7.30;;
30068;SDS011;16894;49.456;10.644;2022-08-03T12:10:53;7.50;;;7.00;;
30068;SDS011;16894;49.456;10.644;2022-08-03T12:13:21;6.93;;;6.43;;
30068;SDS011;16894;49.456;10.644;2022-08-03T12:15:54;6.95;;;6.25;;
30068;SDS011;16894;49.456;10.644;2022-08-03T12:18:21;9.85;;;6.53;;
30068;SDS011;16894;49.456;10.644;2022-08-03T12:20:48;7.57;;;6.47;;
30068;SDS011;16894;49.456;10.644;2022-08-03T12:23:15;7.53;;;6.90;;
30068;SDS011;16894;49.456;10.644;2022-08-03T12:25:42;7.30;;;6.68;;
30068;SDS011;16894;49.456;10.644;2022-08-03T12:28:16;7.10;;;6.60;;
30068;SDS011;16894;49.456;10.644;2022-08-03T12:30:47;7.22;;;6.72;;
30068;SDS011;16894;49.456;10.644;2022-08-03T12:33:24;6.47;;;6.07;;
30068;SDS011;16894;49.456;10.644;2022-08-03T12:36:04;6.13;;;5.72;;
30068;SDS011;16894;49.456;10.644;2022-08-03T12:38:32;5.85;;;5.38;;
30068;SDS011;16894;49.456;10.644;2022-08-03T12:41:06;5.45;;;5.05;;
30068;SDS011;16894;49.456;10.644;2022-08-03T12:43:35;5.97;;;5.40;;
30068;SDS011;16894;49.456;10.644;2022-08-03T12:46:19;6.15;;;5.75;;
30068;SDS011;16894;49.456;10.644;2022-08-03T12:49:04;5.53;;;5.13;;
30068;SDS011;16894;49.456;10.644;2022-08-03T12:51:37;7.10;;;6.60;;
30068;SDS011;16894;49.456;10.644;2022-08-03T12:54:06;7.85;;;6.93;;
30068;SDS011;16894;49.456;10.644;2022-08-03T12:56:32;8.25;;;7.28;;
30068;SDS011;16894;49.456;10.644;2022-08-03T12:58:59;7.75;;;7.25;;
30068;SDS011;16894;49.456;10.644;2022-08-03T13:01:25;7.75;;;7.25;;
30068;SDS011;16894;49.456;10.644;2022-08-03T13:04:00;7.43;;;6.75;;
30068;SDS011;16894;49.456;10.644;2022-08-03T13:06:25;7.65;;;7.15;;
30068;SDS011;16894;49.456;10.644;2022-08-03T13:09:00;6.75;;;6.15;;
30068;SDS011;16894;49.456;10.644;2022-08-03T13:11:30;7.13;;;6.57;;
30068;SDS011;16894;49.456;10.644;2022-08-03T13:13:56;6.85;;;6.35;;
30068;SDS011;16894;49.456;10.644;2022-08-03T13:16:21;8.60;;;8.00;;
30068;SDS011;16894;49.456;10.644;2022-08-03T13:18:48;8.95;;;8.45;;
30068;SDS011;16894;49.456;10.644;2022-08-03T13:21:16;10.52;;;9.52;;
30068;SDS011;16894;49.456;10.644;2022-08-03T13:23:42;11.10;;;10.38;;
30068;SDS011;16894;49.456;10.644;2022-08-03T13:26:08;8.00;;;7.50;;
30068;SDS011;16894;49.456;10.644;2022-08-03T13:28:34;7.50;;;7.00;;
30068;SDS011;16894;49.456;10.644;2022-08-03T13:31:00;8.88;;;8.38;;
30068;SDS011;16894;49.456;10.644;2022-08-03T13:33:26;8.90;;;8.30;;
30068;SDS011;16894;49.456;10.644;2022-08-03T13:35:52;8.77;;;8.27;;
30068;SDS011;16894;49.456;10.644;2022-08-03T13:38:18;8.32;;;7.63;;
30068;SDS011;16894;49.456;10.644;2022-08-03T13:40:44;8.45;;;7.95;;
30068;SDS011;16894;49.456;10.644;2022-08-03T13:43:09;10.00;;;9.30;;
30068;SDS011;16894;49.456;10.644;2022-08-03T13:45:36;9.40;;;8.80;;
30068;SDS011;16894;49.456;10.644;2022-08-03T13:48:02;9.18;;;8.38;;
30068;SDS011;16894;49.456;10.644;2022-08-03T13:50:28;10.55;;;9.57;;
30068;SDS011;16894;49.456;10.644;2022-08-03T13:52:55;10.70;;;10.00;;
30068;SDS011;16894;49.456;10.644;2022-08-03T13:55:21;11.18;;;9.20;;
30068;SDS011;16894;49.456;10.644;2022-08-03T13:57:47;11.20;;;10.35;;
30068;SDS011;16894;49.456;10.644;2022-08-03T14:00:13;9.73;;;9.13;;
30068;SDS011;16894;49.456;10.644;2022-08-03T14:02:40;9.80;;;9.20;;
30068;SDS011;16894;49.456;10.644;2022-08-03T14:05:06;10.73;;;9.93;;
30068;SDS011;16894;49.456;10.644;2022-08-03T14:07:32;11.63;;;10.98;;
30068;SDS011;16894;49.456;10.644;2022-08-03T14:09:58;13.10;;;12.30;;
30068;SDS011;16894;49.456;10.644;2022-08-03T14:12:25;12.07;;;11.38;;
30068;SDS011;16894;49.456;10.644;2022-08-03T14:14:51;13.68;;;9.85;;
30068;SDS011;16894;49.456;10.644;2022-08-03T14:17:17;12.10;;;11.00;;
30068;SDS011;16894;49.456;10.644;2022-08-03T14:19:42;13.82;;;12.82;;
30068;SDS011;16894;49.456;10.644;2022-08-03T14:22:08;15.88;;;14.88;;
30068;SDS011;16894;49.456;10.644;2022-08-03T14:24:34;16.95;;;15.82;;
30068;SDS011;16894;49.456;10.644;2022-08-03T14:26:59;17.48;;;16.38;;
30068;SDS011;16894;49.456;10.644;2022-08-03T14:29:25;17.33;;;16.20;;
30068;SDS011;16894;49.456;10.644;2022-08-03T14:31:50;17.40;;;16.33;;
30068;SDS011;16894;49.456;10.644;2022-08-03T14:34:16;15.77;;;14.88;;
30068;SDS011;16894;49.456;10.644;2022-08-03T14:36:42;18.20;;;17.08;;
30068;SDS011;16894;49.456;10.644;2022-08-03T14:39:07;18.60;;;17.20;;
30068;SDS011;16894;49.456;10.644;2022-08-03T14:41:33;15.27;;;14.30;;
30068;SDS011;16894;49.456;10.644;2022-08-03T14:43:58;12.02;;;11.25;;
30068;SDS011;16894;49.456;10.644;2022-08-03T14:46:24;13.52;;;12.27;;
30068;SDS011;16894;49.456;10.644;2022-08-03T14:48:50;11.48;;;10.68;;
30068;SDS011;16894;49.456;10.644;2022-08-03T14:51:15;13.82;;;12.60;;
30068;SDS011;16894;49.456;10.644;2022-08-03T14:53:41;14.32;;;13.43;;
30068;SDS011;16894;49.456;10.644;2022-08-03T14:56:07;14.05;;;12.85;;
30068;SDS011;16894;49.456;10.644;2022-08-03T14:58:32;11.65;;;10.95;;
30068;SDS011;16894;49.456;10.644;2022-08-03T15:00:58;12.02;;;11.25;;
30068;SDS011;16894;49.456;10.644;2022-08-03T15:03:24;14.65;;;13.75;;
30068;SDS011;16894;49.456;10.644;2022-08-03T15:05:50;13.88;;;13.07;;
30068;SDS011;16894;49.456;10.644;2022-08-03T15:08:16;14.50;;;13.60;;
30068;SDS011;16894;49.456;10.644;2022-08-03T15:10:42;12.52;;;11.65;;
30068;SDS011;16894;49.456;10.644;2022-08-03T15:13:08;11.98;;;11.27;;
30068;SDS011;16894;49.456;10.644;2022-08-03T15:15:34;10.32;;;9.63;;
30068;SDS011;16894;49.456;10.644;2022-08-03T15:17:59;7.97;;;7.07;;
30068;SDS011;16894;49.456;10.644;2022-08-03T15:20:25;6.20;;;5.70;;
30068;SDS011;16894;49.456;10.644;2022-08-03T15:22:50;6.15;;;5.65;;
30068;SDS011;16894;49.456;10.644;2022-08-03T15:25:16;5.90;;;5.28;;
30068;SDS011;16894;49.456;10.644;2022-08-03T15:27:42;5.75;;;5.25;;